Time,TemperatureF,DewpointF,PressureIn,WindDirection,WindDirectionDegrees,WindSpeedMPH,WindSpeedGustMPH,Humidity,HourlyPrecipIn,Conditions,Clouds,dailyrainin,SoftwareType,DateUTC
2013-06-29 03:47:00,62.4,62.4,29.56,South,185,1.0,1.0,100,0.00,,,0.00,Wunderground v.1.15,2013-06-29 07:47:00,
2013-06-29 03:49:00,62.4,62.4,29.56,South,185,1.0,1.0,100,0.00,,,0.00,Wunderground v.1.15,2013-06-29 07:49:00,
2013-06-29 03:51:00,62.4,62.4,29.56,South,182,1.0,2.0,100,0.00,,,0.00,Wunderground v.1.15,2013-06-29 07:51:00,
2013-06-29 03:53:00,62.4,62.4,29.56,South,182,0.0,2.0,100,0.00,,,0.00,Wunderground v.1.15,2013-06-29 07:53:00,
2013-06-29 03:55:00,62.3,62.3,29.56,South,182,0.0,2.0,100,0.00,,,0.00,Wunderground v.1.15,2013-06-29 07:55:00,
2013-06-29 04:01:00,62.3,62.3,29.57,SSW,194,1.0,8.0,100,0.00,,,0.00,Wunderground v.1.15,2013-06-29 08:01:00,
2013-06-29 04:06:00,62.4,62.4,29.57,SSW,196,1.0,8.0,100,0.00,,,0.00,Wunderground v.1.15,2013-06-29 08:06:00,
2013-06-29 04:11:00,62.3,62.3,29.57,SSW,196,0.0,8.0,100,0.00,,,0.00,Wunderground v.1.15,2013-06-29 08:11:00,
2013-06-29 04:16:00,62.3,62.3,29.57,SSW,196,0.0,8.0,100,0.00,,,0.00,Wunderground v.1.15,2013-06-29 08:16:00,
2013-06-29 04:22:00,62.3,62.3,29.57,SSW,196,0.0,8.0,100,0.00,,,0.00,Wunderground v.1.15,2013-06-29 08:22:00,
2013-06-29 04:27:00,62.3,62.3,29.58,SSW,196,0.0,8.0,100,0.00,,,0.00,Wunderground v.1.15,2013-06-29 08:27:00,
2013-06-29 04:32:00,62.3,62.3,29.58,SSW,196,0.0,8.0,100,0.00,,,0.00,Wunderground v.1.15,2013-06-29 08:32:00,
2013-06-29 04:37:00,62.3,62.3,29.57,SSW,196,0.0,8.0,100,0.00,,,0.00,Wunderground v.1.15,2013-06-29 08:37:00,
2013-06-29 04:43:00,62.4,62.4,29.57,SSW,196,0.0,8.0,100,0.00,,,0.00,Wunderground v.1.15,2013-06-29 08:43:00,
2013-06-29 04:48:00,62.4,62.4,29.57,SSW,196,0.0,8.0,100,0.00,,,0.00,Wunderground v.1.15,2013-06-29 08:48:00,
2013-06-29 04:53:00,62.5,62.5,29.57,SSW,196,0.0,8.0,100,0.00,,,0.00,Wunderground v.1.15,2013-06-29 08:53:00,
2013-06-29 04:58:00,62.5,62.5,29.57,SSW,196,0.0,8.0,100,0.00,,,0.00,Wunderground v.1.15,2013-06-29 08:58:00,
2013-06-29 05:03:00,62.6,62.6,29.58,SSW,196,0.0,8.0,100,0.00,,,0.00,Wunderground v.1.15,2013-06-29 09:03:00,
2013-06-29 05:09:00,62.7,62.7,29.57,SSW,196,0.0,8.0,100,0.00,,,0.00,Wunderground v.1.15,2013-06-29 09:09:00,
2013-06-29 05:14:00,62.7,62.7,29.57,SSW,196,0.0,8.0,100,0.00,,,0.00,Wunderground v.1.15,2013-06-29 09:14:00,
2013-06-29 05:19:00,62.8,62.8,29.57,SSW,196,0.0,8.0,100,0.00,,,0.00,Wunderground v.1.15,2013-06-29 09:19:00,
2013-06-29 05:24:00,62.8,62.8,29.57,SSW,196,0.0,8.0,100,0.00,,,0.00,Wunderground v.1.15,2013-06-29 09:24:00,
2013-06-29 05:30:00,63.0,63.0,29.57,SSW,196,0.0,8.0,100,0.00,,,0.00,Wunderground v.1.15,2013-06-29 09:30:00,
2013-06-29 05:36:00,63.1,63.1,29.57,SSW,196,0.0,8.0,100,0.00,,,0.00,Wunderground v.1.15,2013-06-29 09:36:00,
2013-06-29 05:41:00,63.2,63.2,29.57,SSW,196,0.0,8.0,100,0.00,,,0.00,Wunderground v.1.15,2013-06-29 09:41:00,
2013-06-29 05:47:00,63.2,63.2,29.57,SSW,196,0.0,8.0,100,0.00,,,0.00,Wunderground v.1.15,2013-06-29 09:47:00,
2013-06-29 05:52:00,63.2,63.2,29.57,SSW,196,0.0,8.0,100,0.00,,,0.00,Wunderground v.1.15,2013-06-29 09:52:00,
2013-06-29 05:57:00,63.2,63.2,29.58,SSW,196,0.0,8.0,100,0.00,,,0.00,Wunderground v.1.15,2013-06-29 09:57:00,
2013-06-29 06:02:00,63.2,63.2,29.57,SSW,196,0.0,8.0,100,0.00,,,0.00,Wunderground v.1.15,2013-06-29 10:02:00,
2013-06-29 06:07:00,63.3,63.3,29.58,SSW,196,0.0,8.0,100,0.00,,,0.00,Wunderground v.1.15,2013-06-29 10:07:00,
2013-06-29 06:13:00,63.5,63.5,29.58,South,180,0.0,8.0,100,0.00,,,0.00,Wunderground v.1.15,2013-06-29 10:13:00,
2013-06-29 06:18:00,63.7,63.7,29.59,South,180,0.0,8.0,100,0.00,,,0.01,Wunderground v.1.15,2013-06-29 10:18:00,
2013-06-29 06:23:00,63.8,63.8,29.58,South,180,0.0,8.0,100,0.00,,,0.01,Wunderground v.1.15,2013-06-29 10:23:00,
2013-06-29 06:29:00,63.9,63.9,29.59,South,180,0.0,8.0,100,0.00,,,0.01,Wunderground v.1.15,2013-06-29 10:29:00,
2013-06-29 06:34:00,64.0,64.0,29.58,South,180,0.0,8.0,100,0.00,,,0.01,Wunderground v.1.15,2013-06-29 10:34:00,
2013-06-29 06:39:00,64.1,64.1,29.58,South,180,0.0,8.0,100,0.00,,,0.01,Wunderground v.1.15,2013-06-29 10:39:00,
2013-06-29 06:45:00,64.3,64.3,29.58,South,180,0.0,8.0,100,0.00,,,0.01,Wunderground v.1.15,2013-06-29 10:45:00,
2013-06-29 06:50:00,64.4,64.4,29.59,South,177,0.0,8.0,100,0.00,,,0.01,Wunderground v.1.15,2013-06-29 10:50:00,
2013-06-29 06:55:00,64.7,64.7,29.58,South,177,0.0,8.0,100,0.00,,,0.01,Wunderground v.1.15,2013-06-29 10:55:00,
2013-06-29 07:01:00,65.0,65.0,29.58,South,174,0.0,8.0,100,0.00,,,0.01,Wunderground v.1.15,2013-06-29 11:01:00,
2013-06-29 07:06:00,65.2,65.2,29.58,South,174,1.0,8.0,100,0.00,,,0.01,Wunderground v.1.15,2013-06-29 11:06:00,
2013-06-29 07:11:00,65.4,65.4,29.58,South,174,0.0,8.0,100,0.00,,,0.01,Wunderground v.1.15,2013-06-29 11:11:00,
2013-06-29 07:17:00,65.5,65.5,29.59,SSE,166,0.0,8.0,100,0.00,,,0.01,Wunderground v.1.15,2013-06-29 11:17:00,
2013-06-29 07:22:00,65.5,65.5,29.59,SSW,193,0.0,8.0,100,0.00,,,0.01,Wunderground v.1.15,2013-06-29 11:22:00,
2013-06-29 07:27:00,65.6,65.6,29.59,SSW,211,1.0,8.0,100,0.00,,,0.01,Wunderground v.1.15,2013-06-29 11:27:00,
2013-06-29 07:33:00,65.6,65.6,29.59,SSW,209,2.0,8.0,100,0.00,,,0.01,Wunderground v.1.15,2013-06-29 11:33:00,
2013-06-29 07:38:00,65.6,65.6,29.59,SSW,201,4.0,8.0,100,0.00,,,0.01,Wunderground v.1.15,2013-06-29 11:38:00,
2013-06-29 07:44:00,65.6,65.6,29.59,SSW,200,3.0,8.0,100,0.00,,,0.01,Wunderground v.1.15,2013-06-29 11:44:00,
2013-06-29 07:49:00,65.4,65.4,29.59,SSW,195,2.0,8.0,100,0.00,,,0.01,Wunderground v.1.15,2013-06-29 11:49:00,
2013-06-29 07:54:00,65.4,65.4,29.60,SSW,213,2.0,8.0,100,0.00,,,0.01,Wunderground v.1.15,2013-06-29 11:54:00,
2013-06-29 07:59:00,65.3,65.3,29.60,South,185,2.0,8.0,100,0.00,,,0.01,Wunderground v.1.15,2013-06-29 11:59:00,
2013-06-29 08:04:00,65.2,65.2,29.60,SW,214,3.0,8.0,100,0.00,,,0.01,Wunderground v.1.15,2013-06-29 12:04:00,
2013-06-29 08:10:00,65.0,65.0,29.60,SSW,205,3.0,3.0,100,0.00,,,0.01,Wunderground v.1.15,2013-06-29 12:10:00,
2013-06-29 08:15:00,64.9,64.9,29.60,SW,230,3.0,8.0,100,0.00,,,0.01,Wunderground v.1.15,2013-06-29 12:15:00,
2013-06-29 08:20:00,64.9,64.9,29.60,SSW,212,2.0,8.0,100,0.00,,,0.01,Wunderground v.1.15,2013-06-29 12:20:00,
2013-06-29 08:26:00,64.8,64.8,29.60,SSW,202,2.0,8.0,100,0.00,,,0.01,Wunderground v.1.15,2013-06-29 12:26:00,
2013-06-29 08:31:00,64.6,64.6,29.60,SSW,200,3.0,8.0,100,0.00,,,0.01,Wunderground v.1.15,2013-06-29 12:31:00,
2013-06-29 08:37:00,64.5,64.5,29.60,SW,223,3.0,8.0,100,0.00,,,0.01,Wunderground v.1.15,2013-06-29 12:37:00,
2013-06-29 08:42:00,64.4,64.4,29.60,SSW,194,2.0,8.0,100,0.00,,,0.01,Wunderground v.1.15,2013-06-29 12:42:00,
2013-06-29 08:47:00,64.3,64.3,29.60,SW,228,2.0,8.0,100,0.00,,,0.01,Wunderground v.1.15,2013-06-29 12:47:00,
2013-06-29 08:53:00,64.3,64.3,29.60,SW,222,2.0,8.0,100,0.00,,,0.01,Wunderground v.1.15,2013-06-29 12:53:00,
2013-06-29 08:58:00,64.2,64.2,29.60,SSW,194,3.0,8.0,100,0.00,,,0.01,Wunderground v.1.15,2013-06-29 12:58:00,
2013-06-29 09:04:00,64.0,64.0,29.60,South,177,3.0,8.0,100,0.00,,,0.01,Wunderground v.1.15,2013-06-29 13:04:00,
2013-06-29 09:09:00,64.0,64.0,29.60,SSE,163,3.0,8.0,100,0.00,,,0.01,Wunderground v.1.15,2013-06-29 13:09:00,
2013-06-29 09:14:00,64.0,64.0,29.60,South,173,3.0,8.0,100,0.00,,,0.01,Wunderground v.1.15,2013-06-29 13:14:00,
2013-06-29 09:19:00,64.1,64.1,29.60,South,183,2.0,8.0,100,0.00,,,0.01,Wunderground v.1.15,2013-06-29 13:19:00,
2013-06-29 09:25:00,64.4,64.4,29.60,SSW,206,1.0,8.0,100,0.00,,,0.01,Wunderground v.1.15,2013-06-29 13:25:00,
2013-06-29 09:30:00,64.6,64.6,29.59,SW,218,1.0,1.0,100,0.00,,,0.01,Wunderground v.1.15,2013-06-29 13:30:00,
2013-06-29 09:35:00,65.1,65.1,29.59,South,170,1.0,8.0,100,0.00,,,0.01,Wunderground v.1.15,2013-06-29 13:35:00,
2013-06-29 09:40:00,65.4,65.4,29.59,SSE,155,1.0,8.0,100,0.00,,,0.01,Wunderground v.1.15,2013-06-29 13:40:00,
2013-06-29 09:46:00,65.6,65.6,29.60,ESE,117,1.0,8.0,100,0.00,,,0.01,Wunderground v.1.15,2013-06-29 13:46:00,
2013-06-29 09:51:00,65.7,65.7,29.60,SSE,161,1.0,8.0,100,0.00,,,0.01,Wunderground v.1.15,2013-06-29 13:51:00,
2013-06-29 09:57:00,65.5,65.5,29.61,South,188,2.0,8.0,100,0.00,,,0.01,Wunderground v.1.15,2013-06-29 13:57:00,
2013-06-29 10:02:00,65.1,65.1,29.61,SSE,163,3.0,8.0,100,0.00,,,0.01,Wunderground v.1.15,2013-06-29 14:02:00,
2013-06-29 10:07:00,65.1,65.1,29.61,South,170,4.0,8.0,100,0.00,,,0.01,Wunderground v.1.15,2013-06-29 14:07:00,
2013-06-29 10:12:00,65.1,65.1,29.61,SSW,208,3.0,8.0,100,0.00,,,0.01,Wunderground v.1.15,2013-06-29 14:12:00,
2013-06-29 10:17:00,65.1,65.1,29.60,SW,217,3.0,8.0,100,0.00,,,0.01,Wunderground v.1.15,2013-06-29 14:17:00,
2013-06-29 10:23:00,65.2,65.2,29.61,South,169,3.0,8.0,100,0.00,,,0.01,Wunderground v.1.15,2013-06-29 14:23:00,
2013-06-29 10:28:00,64.9,64.9,29.61,SSE,148,4.0,8.0,100,0.00,,,0.01,Wunderground v.1.15,2013-06-29 14:28:00,
2013-06-29 10:34:00,64.6,64.6,29.61,SSE,166,4.0,8.0,100,0.00,,,0.01,Wunderground v.1.15,2013-06-29 14:34:00,
2013-06-29 10:40:00,64.5,64.5,29.61,South,178,3.0,8.0,100,0.00,,,0.01,Wunderground v.1.15,2013-06-29 14:40:00,
2013-06-29 10:45:00,64.6,64.6,29.61,SSE,157,3.0,8.0,100,0.00,,,0.01,Wunderground v.1.15,2013-06-29 14:45:00,
2013-06-29 10:50:00,64.8,64.8,29.60,South,173,2.0,8.0,100,0.00,,,0.01,Wunderground v.1.15,2013-06-29 14:50:00,
2013-06-29 10:55:00,64.9,64.9,29.61,South,171,2.0,8.0,100,0.00,,,0.01,Wunderground v.1.15,2013-06-29 14:55:00,
2013-06-29 11:00:00,64.9,64.9,29.60,South,181,2.0,2.0,100,0.00,,,0.01,Wunderground v.1.15,2013-06-29 15:00:00,
2013-06-29 11:05:00,65.0,65.0,29.60,South,178,2.0,8.0,100,0.00,,,0.01,Wunderground v.1.15,2013-06-29 15:05:00,
2013-06-29 11:10:00,65.2,65.2,29.60,SW,221,1.0,8.0,100,0.00,,,0.01,Wunderground v.1.15,2013-06-29 15:10:00,
2013-06-29 11:16:00,65.3,65.3,29.60,SSW,202,1.0,8.0,100,0.00,,,0.01,Wunderground v.1.15,2013-06-29 15:16:00,
2013-06-29 11:21:00,65.4,65.4,29.60,SSE,168,1.0,8.0,100,0.00,,,0.01,Wunderground v.1.15,2013-06-29 15:21:00,
2013-06-29 11:26:00,65.6,65.6,29.60,South,173,1.0,8.0,100,0.00,,,0.01,Wunderground v.1.15,2013-06-29 15:26:00,
2013-06-29 11:31:00,65.6,65.6,29.60,South,182,2.0,8.0,100,0.00,,,0.01,Wunderground v.1.15,2013-06-29 15:31:00,
2013-06-29 11:37:00,65.8,65.8,29.60,SW,220,2.0,8.0,100,0.00,,,0.01,Wunderground v.1.15,2013-06-29 15:37:00,
2013-06-29 11:42:00,65.7,65.7,29.60,South,176,2.0,8.0,100,0.00,,,0.01,Wunderground v.1.15,2013-06-29 15:42:00,
2013-06-29 11:48:00,65.8,65.8,29.60,South,181,2.0,8.0,100,0.00,,,0.01,Wunderground v.1.15,2013-06-29 15:48:00,
2013-06-29 11:53:00,65.8,65.8,29.60,South,188,3.0,8.0,100,0.00,,,0.01,Wunderground v.1.15,2013-06-29 15:53:00,
2013-06-29 11:58:00,65.8,65.8,29.60,South,184,3.0,8.0,100,0.00,,,0.01,Wunderground v.1.15,2013-06-29 15:58:00,
2013-06-29 12:03:00,65.8,65.8,29.60,SSW,200,4.0,8.0,100,0.00,,,0.01,Wunderground v.1.15,2013-06-29 16:03:00,
2013-06-29 12:08:00,65.7,65.7,29.60,SSE,150,4.0,8.0,100,0.00,,,0.01,Wunderground v.1.15,2013-06-29 16:08:00,
2013-06-29 12:13:00,65.4,65.4,29.60,South,186,4.0,8.0,100,0.00,,,0.01,Wunderground v.1.15,2013-06-29 16:13:00,
2013-06-29 12:19:00,65.4,65.4,29.60,South,179,3.0,8.0,100,0.00,,,0.01,Wunderground v.1.15,2013-06-29 16:19:00,
2013-06-29 12:24:00,65.4,65.4,29.60,South,171,2.0,8.0,100,0.00,,,0.01,Wunderground v.1.15,2013-06-29 16:24:00,
2013-06-29 12:29:00,65.2,65.2,29.60,South,176,2.0,8.0,100,0.00,,,0.01,Wunderground v.1.15,2013-06-29 16:29:00,
2013-06-29 12:34:00,65.3,65.3,29.60,SSW,202,3.0,8.0,100,0.00,,,0.01,Wunderground v.1.15,2013-06-29 16:34:00,
2013-06-29 12:39:00,65.3,65.3,29.59,SW,217,3.0,8.0,100,0.00,,,0.01,Wunderground v.1.15,2013-06-29 16:39:00,
2013-06-29 12:45:00,65.4,65.4,29.59,South,185,3.0,8.0,100,0.00,,,0.01,Wunderground v.1.15,2013-06-29 16:45:00,
2013-06-29 12:50:00,65.5,65.5,29.59,SSE,167,3.0,3.0,100,0.00,,,0.01,Wunderground v.1.15,2013-06-29 16:50:00,
2013-06-29 12:55:00,65.8,65.8,29.59,SW,225,3.0,8.0,100,0.00,,,0.01,Wunderground v.1.15,2013-06-29 16:55:00,
2013-06-29 13:00:00,66.0,66.0,29.60,SSW,196,2.0,8.0,100,0.00,,,0.01,Wunderground v.1.15,2013-06-29 17:00:00,
2013-06-29 13:05:00,65.7,65.7,29.59,South,175,3.0,8.0,100,0.00,,,0.01,Wunderground v.1.15,2013-06-29 17:05:00,
2013-06-29 13:10:00,65.9,65.9,29.61,SW,231,3.0,8.0,100,0.00,,,0.01,Wunderground v.1.15,2013-06-29 17:10:00,
2013-06-29 13:16:00,65.5,65.5,29.61,SSW,195,3.0,8.0,100,0.00,,,0.01,Wunderground v.1.15,2013-06-29 17:16:00,
2013-06-29 13:21:00,65.4,65.4,29.60,South,178,3.0,6.0,100,0.00,,,0.01,Wunderground v.1.15,2013-06-29 17:21:00,
2013-06-29 13:27:00,65.7,65.7,29.61,SW,234,3.0,8.0,100,0.00,,,0.01,Wunderground v.1.15,2013-06-29 17:27:00,
2013-06-29 13:32:00,65.6,65.6,29.61,SSW,195,3.0,8.0,100,0.00,,,0.01,Wunderground v.1.15,2013-06-29 17:32:00,
2013-06-29 13:37:00,65.6,65.6,29.61,South,169,2.0,8.0,100,0.00,,,0.01,Wunderground v.1.15,2013-06-29 17:37:00,
2013-06-29 13:42:00,65.7,65.7,29.61,SSW,202,2.0,8.0,100,0.00,,,0.01,Wunderground v.1.15,2013-06-29 17:42:00,
2013-06-29 13:47:00,65.6,65.6,29.61,SSW,208,2.0,8.0,100,0.00,,,0.01,Wunderground v.1.15,2013-06-29 17:47:00,
2013-06-29 13:53:00,65.8,65.8,29.61,SSE,154,2.0,8.0,100,0.00,,,0.01,Wunderground v.1.15,2013-06-29 17:53:00,
2013-06-29 13:58:00,65.9,65.9,29.61,South,178,2.0,8.0,100,0.00,,,0.01,Wunderground v.1.15,2013-06-29 17:58:00,
2013-06-29 14:03:00,66.0,66.0,29.61,SSE,166,4.0,8.0,100,0.00,,,0.01,Wunderground v.1.15,2013-06-29 18:03:00,
2013-06-29 14:09:00,65.9,65.9,29.61,WSW,238,5.0,9.0,100,0.00,,,0.01,Wunderground v.1.15,2013-06-29 18:09:00,
2013-06-29 14:15:00,65.9,65.9,29.61,SSW,207,4.0,8.0,100,0.00,,,0.01,Wunderground v.1.15,2013-06-29 18:15:00,
2013-06-29 14:21:00,65.7,65.7,29.61,South,180,4.0,8.0,100,0.00,,,0.01,Wunderground v.1.15,2013-06-29 18:21:00,
2013-06-29 14:26:00,65.3,65.3,29.60,South,172,5.0,8.0,100,0.00,,,0.01,Wunderground v.1.15,2013-06-29 18:26:00,
2013-06-29 14:32:00,65.2,65.2,29.60,SSW,193,5.0,8.0,100,0.00,,,0.01,Wunderground v.1.15,2013-06-29 18:32:00,
2013-06-29 14:37:00,65.8,65.8,29.60,SSW,204,4.0,8.0,100,0.00,,,0.01,Wunderground v.1.15,2013-06-29 18:37:00,
2013-06-29 14:42:00,66.0,66.0,29.61,SSW,195,4.0,8.0,100,0.00,,,0.01,Wunderground v.1.15,2013-06-29 18:42:00,
2013-06-29 14:48:00,65.9,65.9,29.61,South,185,5.0,8.0,100,0.00,,,0.01,Wunderground v.1.15,2013-06-29 18:48:00,
2013-06-29 14:53:00,66.1,66.1,29.61,SSW,213,5.0,8.0,100,0.00,,,0.01,Wunderground v.1.15,2013-06-29 18:53:00,
2013-06-29 14:58:00,66.3,66.3,29.61,South,184,4.0,8.0,100,0.00,,,0.01,Wunderground v.1.15,2013-06-29 18:58:00,
2013-06-29 15:03:00,66.9,66.9,29.61,SSW,193,4.0,8.0,100,0.00,,,0.01,Wunderground v.1.15,2013-06-29 19:03:00,
2013-06-29 15:08:00,67.1,67.1,29.61,South,180,4.0,8.0,100,0.00,,,0.01,Wunderground v.1.15,2013-06-29 19:08:00,
2013-06-29 15:14:00,67.4,67.1,29.61,SSW,213,5.0,8.0,99,0.00,,,0.01,Wunderground v.1.15,2013-06-29 19:14:00,
2013-06-29 15:20:00,68.1,68.1,29.60,SW,215,4.0,4.0,100,0.00,,,0.01,Wunderground v.1.15,2013-06-29 19:20:00,
2013-06-29 15:25:00,68.4,68.1,29.60,South,171,4.0,8.0,99,0.00,,,0.01,Wunderground v.1.15,2013-06-29 19:25:00,
2013-06-29 15:30:00,68.6,68.0,29.60,SSW,194,4.0,8.0,98,0.00,,,0.01,Wunderground v.1.15,2013-06-29 19:30:00,
2013-06-29 15:35:00,68.1,67.5,29.61,SSE,151,5.0,12.0,98,0.00,,,0.01,Wunderground v.1.15,2013-06-29 19:35:00,
2013-06-29 15:40:00,67.7,66.8,29.60,SSW,196,6.0,6.0,97,0.00,,,0.01,Wunderground v.1.15,2013-06-29 19:40:00,
2013-06-29 15:46:00,67.6,67.0,29.60,SE,142,5.0,9.0,98,0.00,,,0.01,Wunderground v.1.15,2013-06-29 19:46:00,
2013-06-29 15:51:00,67.2,66.6,29.60,SSE,165,6.0,8.0,98,0.00,,,0.01,Wunderground v.1.15,2013-06-29 19:51:00,
2013-06-29 15:57:00,67.1,66.5,29.60,South,187,6.0,8.0,98,0.00,,,0.01,Wunderground v.1.15,2013-06-29 19:57:00,
2013-06-29 16:02:00,66.8,66.5,29.60,SSE,167,6.0,14.0,99,0.00,,,0.02,Wunderground v.1.15,2013-06-29 20:02:00,
2013-06-29 16:08:00,66.7,66.4,29.60,SSW,200,6.0,14.0,99,0.00,,,0.02,Wunderground v.1.15,2013-06-29 20:08:00,
2013-06-29 16:14:00,67.0,66.7,29.61,SSE,164,6.0,13.0,99,0.00,,,0.02,Wunderground v.1.15,2013-06-29 20:14:00,
2013-06-29 16:19:00,67.2,66.9,29.61,SSW,197,5.0,13.0,99,0.00,,,0.02,Wunderground v.1.15,2013-06-29 20:19:00,
2013-06-29 16:25:00,67.2,66.6,29.61,SSW,193,6.0,12.0,98,0.00,,,0.02,Wunderground v.1.15,2013-06-29 20:25:00,
2013-06-29 16:30:00,66.8,66.2,29.61,SSE,167,7.0,10.0,98,0.00,,,0.02,Wunderground v.1.15,2013-06-29 20:30:00,
2013-06-29 16:35:00,66.5,65.9,29.61,SSW,192,7.0,10.0,98,0.00,,,0.02,Wunderground v.1.15,2013-06-29 20:35:00,
2013-06-29 16:41:00,66.5,66.2,29.61,SSW,202,6.0,8.0,99,0.00,,,0.02,Wunderground v.1.15,2013-06-29 20:41:00,
2013-06-29 16:47:00,66.7,66.4,29.61,SSW,203,4.0,8.0,99,0.00,,,0.02,Wunderground v.1.15,2013-06-29 20:47:00,
2013-06-29 16:52:00,66.9,66.6,29.61,SW,214,3.0,8.0,99,0.00,,,0.02,Wunderground v.1.15,2013-06-29 20:52:00,
2013-06-29 16:57:00,67.0,66.7,29.61,SW,214,4.0,8.0,99,0.00,,,0.02,Wunderground v.1.15,2013-06-29 20:57:00,
2013-06-29 17:02:00,67.0,66.4,29.61,SSE,158,5.0,8.0,98,0.00,,,0.02,Wunderground v.1.15,2013-06-29 21:02:00,
2013-06-29 17:07:00,67.0,66.4,29.61,SW,223,5.0,8.0,98,0.00,,,0.02,Wunderground v.1.15,2013-06-29 21:07:00,
2013-06-29 17:12:00,66.9,66.3,29.61,SSE,164,5.0,8.0,98,0.00,,,0.02,Wunderground v.1.15,2013-06-29 21:12:00,
2013-06-29 17:18:00,67.2,66.6,29.61,SSE,165,5.0,9.0,98,0.00,,,0.02,Wunderground v.1.15,2013-06-29 21:18:00,
2013-06-29 17:24:00,67.6,66.7,29.61,SSW,209,4.0,8.0,97,0.00,,,0.02,Wunderground v.1.15,2013-06-29 21:24:00,
2013-06-29 17:29:00,67.9,67.0,29.61,South,170,4.0,8.0,97,0.00,,,0.02,Wunderground v.1.15,2013-06-29 21:29:00,
2013-06-29 17:34:00,68.4,67.2,29.61,South,174,4.0,8.0,96,0.00,,,0.02,Wunderground v.1.15,2013-06-29 21:34:00,
2013-06-29 17:40:00,68.9,67.4,29.61,SW,214,4.0,8.0,95,0.00,,,0.02,Wunderground v.1.15,2013-06-29 21:40:00,
2013-06-29 17:45:00,69.3,67.8,29.61,SSW,200,4.0,8.0,95,0.00,,,0.02,Wunderground v.1.15,2013-06-29 21:45:00,
2013-06-29 17:50:00,69.7,67.9,29.62,SSW,202,3.0,8.0,94,0.00,,,0.02,Wunderground v.1.15,2013-06-29 21:50:00,
2013-06-29 17:56:00,69.7,67.6,29.61,SSW,194,4.0,8.0,93,0.00,,,0.02,Wunderground v.1.15,2013-06-29 21:56:00,
2013-06-29 18:01:00,69.5,67.4,29.62,SSW,202,4.0,8.0,93,0.00,,,0.02,Wunderground v.1.15,2013-06-29 22:01:00,
2013-06-29 18:07:00,69.2,67.1,29.61,SSW,202,5.0,13.0,93,0.00,,,0.02,Wunderground v.1.15,2013-06-29 22:07:00,
2013-06-29 18:12:00,69.2,67.1,29.61,SSW,202,6.0,8.0,93,0.00,,,0.02,Wunderground v.1.15,2013-06-29 22:12:00,
2013-06-29 18:17:00,69.0,66.9,29.61,SSW,202,5.0,8.0,93,0.00,,,0.02,Wunderground v.1.15,2013-06-29 22:17:00,
2013-06-29 18:22:00,68.9,66.8,29.61,SSW,209,6.0,8.0,93,0.00,,,0.02,Wunderground v.1.15,2013-06-29 22:22:00,
2013-06-29 18:28:00,69.0,66.9,29.61,SSE,165,6.0,9.0,93,0.00,,,0.02,Wunderground v.1.15,2013-06-29 22:28:00,
2013-06-29 18:33:00,68.8,66.4,29.61,SW,217,6.0,8.0,92,0.00,,,0.02,Wunderground v.1.15,2013-06-29 22:33:00,
2013-06-29 18:38:00,68.5,66.1,29.61,South,176,7.0,9.0,92,0.00,,,0.02,Wunderground v.1.15,2013-06-29 22:38:00,
2013-06-29 18:43:00,68.4,66.0,29.62,South,190,8.0,10.0,92,0.00,,,0.02,Wunderground v.1.15,2013-06-29 22:43:00,
2013-06-29 18:49:00,68.1,65.4,29.62,SSE,167,8.0,10.0,91,0.00,,,0.02,Wunderground v.1.15,2013-06-29 22:49:00,
2013-06-29 18:54:00,67.9,65.2,29.62,SSW,194,8.0,11.0,91,0.00,,,0.02,Wunderground v.1.15,2013-06-29 22:54:00,
2013-06-29 18:59:00,67.8,65.1,29.62,SW,228,7.0,11.0,91,0.00,,,0.02,Wunderground v.1.15,2013-06-29 22:59:00,
2013-06-29 19:04:00,67.6,64.9,29.63,SSE,163,7.0,12.0,91,0.00,,,0.02,Wunderground v.1.15,2013-06-29 23:04:00,
2013-06-29 19:10:00,67.2,64.8,29.63,South,173,7.0,17.0,92,0.00,,,0.02,Wunderground v.1.15,2013-06-29 23:10:00,
2013-06-29 19:16:00,67.0,64.6,29.63,South,181,7.0,17.0,92,0.00,,,0.02,Wunderground v.1.15,2013-06-29 23:16:00,
2013-06-29 19:21:00,66.8,64.4,29.63,SW,221,7.0,8.0,92,0.00,,,0.02,Wunderground v.1.15,2013-06-29 23:21:00,
2013-06-29 19:27:00,66.6,64.5,29.63,SSW,211,7.0,15.0,93,0.00,,,0.02,Wunderground v.1.15,2013-06-29 23:27:00,
2013-06-29 19:32:00,66.3,64.2,29.64,SSE,163,6.0,8.0,93,0.00,,,0.02,Wunderground v.1.15,2013-06-29 23:32:00,
2013-06-29 19:37:00,66.0,63.9,29.64,SSE,163,6.0,8.0,93,0.00,,,0.02,Wunderground v.1.15,2013-06-29 23:37:00,
2013-06-29 19:42:00,65.8,64.0,29.64,SW,219,5.0,9.0,94,0.00,,,0.02,Wunderground v.1.15,2013-06-29 23:42:00,
2013-06-29 19:47:00,65.6,63.8,29.64,SSW,204,4.0,9.0,94,0.00,,,0.02,Wunderground v.1.15,2013-06-29 23:47:00,
2013-06-29 19:53:00,65.5,63.7,29.64,South,174,4.0,8.0,94,0.00,,,0.02,Wunderground v.1.15,2013-06-29 23:53:00,
2013-06-29 19:58:00,65.5,63.7,29.65,South,190,3.0,8.0,94,0.00,,,0.02,Wunderground v.1.15,2013-06-29 23:58:00,
2013-06-29 20:03:00,65.4,63.6,29.65,South,173,3.0,8.0,94,0.00,,,0.02,Wunderground v.1.15,2013-06-30 00:03:00,
2013-06-29 20:08:00,65.2,63.4,29.65,South,191,5.0,8.0,94,0.00,,,0.02,Wunderground v.1.15,2013-06-30 00:08:00,
2013-06-29 20:14:00,64.9,63.4,29.64,WSW,257,4.0,8.0,95,0.00,,,0.02,Wunderground v.1.15,2013-06-30 00:14:00,
2013-06-29 20:19:00,64.7,63.2,29.64,SSW,201,4.0,8.0,95,0.00,,,0.02,Wunderground v.1.15,2013-06-30 00:19:00,
2013-06-29 20:25:00,64.5,63.0,29.64,South,176,5.0,8.0,95,0.00,,,0.02,Wunderground v.1.15,2013-06-30 00:25:00,
2013-06-29 20:30:00,64.3,63.1,29.65,SSW,201,6.0,6.0,96,0.00,,,0.02,Wunderground v.1.15,2013-06-30 00:30:00,
2013-06-29 20:36:00,64.2,63.0,29.65,SSW,200,5.0,8.0,96,0.00,,,0.02,Wunderground v.1.15,2013-06-30 00:36:00,
2013-06-29 20:41:00,64.1,62.9,29.65,South,188,4.0,8.0,96,0.00,,,0.02,Wunderground v.1.15,2013-06-30 00:41:00,
2013-06-29 20:46:00,64.1,62.9,29.65,SSE,157,4.0,8.0,96,0.00,,,0.02,Wunderground v.1.15,2013-06-30 00:46:00,
2013-06-29 20:51:00,64.0,62.8,29.65,SSW,195,4.0,8.0,96,0.00,,,0.02,Wunderground v.1.15,2013-06-30 00:51:00,
2013-06-29 20:56:00,63.8,62.6,29.65,SSW,199,4.0,8.0,96,0.00,,,0.02,Wunderground v.1.15,2013-06-30 00:56:00,
2013-06-29 21:01:00,63.6,62.7,29.66,South,169,3.0,8.0,97,0.00,,,0.02,Wunderground v.1.15,2013-06-30 01:01:00,
2013-06-29 21:07:00,63.4,62.5,29.65,SSW,196,2.0,8.0,97,0.00,,,0.02,Wunderground v.1.15,2013-06-30 01:07:00,
2013-06-29 21:12:00,63.4,62.5,29.66,SSW,199,3.0,8.0,97,0.00,,,0.02,Wunderground v.1.15,2013-06-30 01:12:00,
2013-06-29 21:17:00,63.5,62.9,29.66,South,189,4.0,8.0,98,0.00,,,0.02,Wunderground v.1.15,2013-06-30 01:17:00,
2013-06-29 21:23:00,63.7,63.1,29.66,South,170,4.0,8.0,98,0.00,,,0.02,Wunderground v.1.15,2013-06-30 01:23:00,
2013-06-29 21:29:00,63.9,63.3,29.67,SSE,151,6.0,12.0,98,0.00,,,0.02,Wunderground v.1.15,2013-06-30 01:29:00,
2013-06-29 21:34:00,63.9,63.3,29.67,South,184,6.0,9.0,98,0.00,,,0.02,Wunderground v.1.15,2013-06-30 01:34:00,
2013-06-29 21:39:00,63.9,63.3,29.67,South,179,6.0,9.0,98,0.00,,,0.02,Wunderground v.1.15,2013-06-30 01:39:00,
2013-06-29 21:45:00,63.9,63.3,29.67,SE,146,6.0,10.0,98,0.00,,,0.02,Wunderground v.1.15,2013-06-30 01:45:00,
2013-06-29 21:50:00,63.8,63.2,29.67,SW,234,5.0,8.0,98,0.00,,,0.02,Wunderground v.1.15,2013-06-30 01:50:00,
2013-06-29 21:56:00,63.8,63.2,29.67,SSW,194,5.0,8.0,98,0.00,,,0.02,Wunderground v.1.15,2013-06-30 01:56:00,
2013-06-29 22:01:00,63.7,63.1,29.67,SSW,205,5.0,8.0,98,0.00,,,0.02,Wunderground v.1.15,2013-06-30 02:01:00,
2013-06-29 22:06:00,63.7,63.1,29.67,SSE,156,6.0,9.0,98,0.00,,,0.02,Wunderground v.1.15,2013-06-30 02:06:00,
2013-06-29 22:12:00,63.7,63.4,29.67,SSW,211,5.0,8.0,99,0.00,,,0.02,Wunderground v.1.15,2013-06-30 02:12:00,
2013-06-29 22:17:00,63.7,63.4,29.67,South,184,5.0,8.0,99,0.00,,,0.02,Wunderground v.1.15,2013-06-30 02:17:00,
2013-06-29 22:23:00,63.8,63.5,29.67,SSW,205,5.0,8.0,99,0.00,,,0.02,Wunderground v.1.15,2013-06-30 02:23:00,
2013-06-29 22:29:00,63.7,63.1,29.68,SSW,204,5.0,9.0,98,0.00,,,0.02,Wunderground v.1.15,2013-06-30 02:29:00,
2013-06-29 22:34:00,63.6,63.3,29.68,SSW,205,4.0,8.0,99,0.00,,,0.02,Wunderground v.1.15,2013-06-30 02:34:00,
2013-06-29 22:39:00,63.6,63.3,29.68,South,186,3.0,8.0,99,0.00,,,0.02,Wunderground v.1.15,2013-06-30 02:39:00,